Time;durP1;ratioP1;P1;durP2;ratioP2;P2;SDS_P1;SDS_P2;PMS_P1;PMS_P2;Temp;Humidity;BMP_temperature;BMP_pressure;BME280_temperature;BME280_humidity;BME280_pressure;Samples;Min_cycle;Max_cycle;Signal;HPM_P1;HPM_P2
2023/03/30 00:01:57;;;;;;;38.10;13.90;;;;;;;7.87;45.28;98913.88;68303;1283;1015313;-61
2023/03/30 00:05:01;;;;;;;39.00;14.10;;;;;;;7.91;45.36;98912.98;68309;1283;1015605;-61
2023/03/30 00:08:04;;;;;;;37.00;13.00;;;;;;;7.89;45.26;98907.19;68299;1283;1016294;-61
2023/03/30 00:11:06;;;;;;;37.00;13.30;;;;;;;7.76;45.54;98906.24;68304;1283;1016065;-61
2023/03/30 00:14:09;;;;;;;36.70;13.70;;;;;;;7.73;45.64;98900.98;68299;1283;1015905;-61
2023/03/30 00:17:11;;;;;;;37.90;13.70;;;;;;;7.73;45.74;98902.86;68288;1283;1015725;-61
2023/03/30 00:20:13;;;;;;;36.20;12.70;;;;;;;7.74;45.82;98902.67;68288;1283;1015798;-61
2023/03/30 00:23:16;;;;;;;34.40;12.60;;;;;;;7.75;45.87;98905.79;68296;1283;1016029;-61
2023/03/30 00:26:18;;;;;;;34.60;12.70;;;;;;;7.74;45.90;98901.48;68297;1283;1016195;-61
2023/03/30 00:29:21;;;;;;;36.80;12.70;;;;;;;7.73;45.92;98894.70;68296;1283;1016011;-62
2023/03/30 00:32:23;;;;;;;36.20;12.70;;;;;;;7.78;45.86;98895.86;68296;1283;1015505;-61
2023/03/30 00:35:29;;;;;;;35.20;12.50;;;;;;;7.73;46.00;98889.36;68290;1283;1015590;-61
2023/03/30 00:38:31;;;;;;;32.90;12.70;;;;;;;7.86;45.94;98886.45;68283;1283;1015506;-61
2023/03/30 00:41:35;;;;;;;32.90;12.00;;;;;;;7.94;45.87;98880.83;68295;1283;1015781;-61
2023/03/30 00:44:37;;;;;;;33.10;12.40;;;;;;;7.92;45.81;98882.13;68288;1283;1015852;-61
2023/03/30 00:47:40;;;;;;;34.80;12.20;;;;;;;7.97;45.88;98880.67;68293;1283;1015850;-61
2023/03/30 00:50:42;;;;;;;34.80;12.90;;;;;;;8.07;45.83;98870.07;68292;1283;1015708;-61
2023/03/30 00:53:45;;;;;;;35.70;12.80;;;;;;;8.12;45.94;98870.69;68297;1283;1015456;-61
2023/03/30 00:56:48;;;;;;;35.40;12.00;;;;;;;8.22;45.78;98868.27;68284;1283;1015641;-61
2023/03/30 00:59:51;;;;;;;32.60;11.90;;;;;;;8.29;45.70;98866.70;68287;1283;1016008;-61
2023/03/30 01:02:54;;;;;;;;;;;;;;;8.33;45.66;98867.71;68286;1283;1016036;-61
2023/03/30 01:05:56;;;;;;;34.60;11.10;;;;;;;8.38;45.79;98867.45;68290;1283;1016083;-61
2023/03/30 01:08:59;;;;;;;37.10;12.30;;;;;;;8.44;45.59;98869.42;68302;1283;1015526;-60
2023/03/30 01:12:01;;;;;;;35.00;12.30;;;;;;;8.48;45.79;98865.77;68306;1283;1015375;-60
2023/03/30 01:15:06;;;;;;;;;;;;;;;8.56;45.69;98863.28;68303;1283;1016710;-61
2023/03/30 01:18:09;;;;;;;35.70;12.00;;;;;;;8.62;45.69;98862.42;68283;1283;1015761;-61
2023/03/30 01:21:12;;;;;;;35.20;11.60;;;;;;;8.72;45.83;98861.27;65471;1283;6703487;-61
2023/03/30 01:24:14;;;;;;;37.60;12.40;;;;;;;8.75;45.63;98863.35;68298;1283;1015448;-61
2023/03/30 01:27:17;;;;;;;32.40;12.20;;;;;;;8.76;45.75;98857.01;68289;1283;1015143;-60
2023/03/30 01:30:20;;;;;;;33.30;12.00;;;;;;;8.82;45.89;98852.85;68289;1283;1015782;-61
2023/03/30 01:33:31;;;;;;;35.40;11.60;;;;;;;8.89;45.68;98855.45;68274;1283;1016734;-61
2023/03/30 01:36:33;;;;;;;32.80;11.80;;;;;;;8.90;45.72;98846.52;68293;1283;1015194;-60
2023/03/30 01:39:36;;;;;;;37.60;12.70;;;;;;;8.93;46.15;98842.48;68296;1283;1015995;-61
2023/03/30 01:42:39;;;;;;;33.70;11.70;;;;;;;8.85;46.00;98840.29;68299;1283;1015600;-60
2023/03/30 01:45:41;;;;;;;34.10;12.60;;;;;;;8.92;45.96;98840.96;68283;1283;1015912;-61
2023/03/30 01:48:44;;;;;;;37.00;13.20;;;;;;;8.97;46.19;98838.23;68295;1283;1015500;-61
2023/03/30 01:51:47;;;;;;;30.70;11.60;;;;;;;8.94;46.36;98832.34;68297;1283;1015509;-61
2023/03/30 01:54:49;;;;;;;34.30;12.30;;;;;;;8.95;46.45;98828.77;68295;1283;1016008;-61
2023/03/30 01:57:52;;;;;;;;;;;;;;;9.00;46.36;98823.11;68296;1283;1016256;-61
2023/03/30 02:00:54;;;;;;;37.20;12.50;;;;;;;9.02;46.42;98826.49;68290;1283;1016037;-61
2023/03/30 02:03:57;;;;;;;37.50;12.10;;;;;;;8.95;46.80;98824.40;68290;1283;1017299;-61
2023/03/30 02:06:59;;;;;;;34.10;12.00;;;;;;;8.98;46.74;98822.66;68291;1283;1015846;-62
2023/03/30 02:10:01;;;;;;;31.30;11.80;;;;;;;8.92;47.11;98826.52;68280;1283;1016625;-61
2023/03/30 02:13:04;;;;;;;37.60;12.60;;;;;;;8.99;47.01;98824.54;68303;1283;1014463;-61
2023/03/30 02:16:06;;;;;;;33.30;11.90;;;;;;;9.04;46.90;98823.23;68287;1283;1016130;-61
2023/03/30 02:19:09;;;;;;;32.60;12.70;;;;;;;9.02;46.94;98824.94;68280;1283;1016366;-61
2023/03/30 02:22:11;;;;;;;32.80;11.50;;;;;;;8.99;47.13;98824.05;68288;1283;1015012;-61
2023/03/30 02:25:14;;;;;;;32.60;11.50;;;;;;;8.95;47.55;98816.37;68289;1283;1016023;-60
2023/03/30 02:28:17;;;;;;;35.20;12.30;;;;;;;8.90;47.37;98811.82;68303;1283;1015767;-61
2023/03/30 02:31:19;;;;;;;34.40;12.90;;;;;;;8.90;47.52;98806.59;68289;1283;1015738;-61
2023/03/30 02:34:22;;;;;;;35.70;12.70;;;;;;;8.85;47.87;98806.84;68285;1283;1014697;-61
2023/03/30 02:37:24;;;;;;;34.50;11.70;;;;;;;8.85;47.86;98805.41;68304;1283;1015409;-61
2023/03/30 02:40:27;;;;;;;34.80;12.90;;;;;;;8.88;47.89;98800.25;68286;1283;1015632;-60
2023/03/30 02:43:30;;;;;;;37.90;12.60;;;;;;;8.93;48.02;98799.23;68296;1283;1015743;-61
2023/03/30 02:46:32;;;;;;;33.80;12.70;;;;;;;9.03;48.31;98797.65;68294;1283;1016213;-61
2023/03/30 02:49:35;;;;;;;35.40;12.30;;;;;;;9.06;48.17;98794.34;68295;1283;1015988;-61
2023/03/30 02:52:37;;;;;;;30.40;11.80;;;;;;;9.02;48.31;98796.83;68288;1283;1015400;-60
2023/03/30 02:55:40;;;;;;;29.80;11.20;;;;;;;9.04;48.11;98797.07;68283;1283;1016105;-61
2023/03/30 02:58:43;;;;;;;32.60;10.80;;;;;;;9.10;48.19;98788.54;68292;1283;1015702;-61
2023/03/30 03:01:46;;;;;;;34.80;12.30;;;;;;;9.18;48.30;98789.46;68293;1283;1014293;-61
2023/03/30 03:04:49;;;;;;;35.50;11.80;;;;;;;9.21;48.48;98787.42;68300;1283;1015487;-61
2023/03/30 03:07:51;;;;;;;30.50;11.80;;;;;;;9.26;48.24;98784.52;68300;1283;1015295;-61
2023/03/30 03:10:53;;;;;;;37.20;11.80;;;;;;;9.25;48.29;98781.93;68297;1283;1015851;-61
2023/03/30 03:13:56;;;;;;;35.00;11.70;;;;;;;9.26;48.59;98771.10;68290;1283;1015899;-61
2023/03/30 03:16:58;;;;;;;33.90;12.30;;;;;;;9.32;48.70;98767.59;68283;1283;1015314;-61
2023/03/30 03:20:01;;;;;;;31.00;11.90;;;;;;;9.30;48.48;98768.95;68295;1283;1015120;-61
2023/03/30 03:23:03;;;;;;;;;;;;;;;9.27;48.56;98769.63;68299;1282;1016399;-61
2023/03/30 03:26:06;;;;;;;33.30;11.10;;;;;;;9.19;48.94;98764.33;68296;1283;1015738;-61
2023/03/30 03:29:09;;;;;;;;;;;;;;;9.05;48.96;98765.13;68292;1283;1015464;-61
2023/03/30 03:32:12;;;;;;;29.30;11.30;;;;;;;9.00;49.37;98760.48;68287;1283;1015203;-61
2023/03/30 03:35:14;;;;;;;33.30;11.60;;;;;;;9.13;49.49;98757.14;68292;1283;1014419;-61
2023/03/30 03:38:16;;;;;;;32.80;11.40;;;;;;;9.17;49.29;98751.19;68288;1283;1015377;-61
2023/03/30 03:41:19;;;;;;;27.80;10.70;;;;;;;9.23;49.55;98749.30;68305;1283;1015512;-61
2023/03/30 03:44:21;;;;;;;31.40;11.10;;;;;;;9.36;49.54;98745.38;68305;1283;1016093;-61
2023/03/30 03:47:23;;;;;;;33.00;11.50;;;;;;;9.49;49.25;98742.89;68286;1283;1015808;-61
2023/03/30 03:50:26;;;;;;;29.00;11.10;;;;;;;9.57;49.34;98737.41;68292;1283;1014811;-61
2023/03/30 03:53:28;;;;;;;32.40;11.40;;;;;;;9.58;49.18;98735.95;68292;1283;1015524;-61
2023/03/30 03:56:31;;;;;;;34.40;11.20;;;;;;;9.62;49.51;98735.14;68287;1283;1015839;-61
2023/03/30 03:59:33;;;;;;;30.20;11.10;;;;;;;9.73;49.41;98722.46;68288;1283;1015717;-61
2023/03/30 04:02:35;;;;;;;35.10;11.90;;;;;;;9.63;49.53;98723.23;68287;1283;1016147;-61
2023/03/30 04:05:38;;;;;;;30.30;11.50;;;;;;;9.47;50.00;98720.18;68302;1283;1015533;-61
2023/03/30 04:08:40;;;;;;;29.30;10.80;;;;;;;9.48;50.15;98718.34;68287;1283;1015476;-61
2023/03/30 04:11:42;;;;;;;35.10;11.30;;;;;;;9.51;50.01;98714.30;68300;1283;1016061;-61
2023/03/30 04:14:45;;;;;;;31.00;10.60;;;;;;;9.48;50.23;98713.30;68303;1283;1015659;-62
2023/03/30 04:17:48;;;;;;;29.30;10.70;;;;;;;9.56;49.93;98712.98;68300;1283;1016139;-61
2023/03/30 04:20:51;;;;;;;29.30;10.80;;;;;;;9.64;50.28;98719.86;68300;1283;1015590;-61
2023/03/30 04:23:53;;;;;;;27.80;10.50;;;;;;;9.72;49.76;98722.17;68293;1283;1015619;-61
2023/03/30 04:26:56;;;;;;;;;;;;;;;9.82;49.92;98713.90;68294;1283;1015538;-61
2023/03/30 04:30:00;;;;;;;33.30;12.10;;;;;;;9.85;49.88;98713.20;68310;1283;1015923;-61
2023/03/30 04:33:03;;;;;;;36.40;12.30;;;;;;;9.82;49.79;98711.14;68295;1283;1016066;-61
2023/03/30 04:36:05;;;;;;;30.10;12.10;;;;;;;9.84;50.01;98705.08;68295;1283;1015593;-61
2023/03/30 04:39:09;;;;;;;36.90;13.00;;;;;;;9.89;49.89;98703.55;68291;1283;1014477;-61
2023/03/30 04:42:13;;;;;;;33.20;12.50;;;;;;;9.90;49.89;98695.64;68296;1283;1016213;-61
2023/03/30 04:45:16;;;;;;;35.30;12.50;;;;;;;9.95;49.99;98686.80;68299;1283;1015185;-61
2023/03/30 04:48:18;;;;;;;35.80;13.70;;;;;;;10.06;50.03;98687.29;68306;1283;1016123;-61
2023/03/30 04:51:20;;;;;;;37.70;13.10;;;;;;;10.05;50.40;98690.17;68299;1283;1016268;-60
2023/03/30 04:54:23;;;;;;;38.60;12.30;;;;;;;10.03;50.05;98679.12;68300;1283;1015796;-61
2023/03/30 04:57:25;;;;;;;38.00;12.80;;;;;;;10.17;50.22;98675.46;68310;1283;1015782;-60
2023/03/30 05:00:27;;;;;;;29.30;10.60;;;;;;;10.26;50.21;98667.96;68296;1283;1015828;-61
2023/03/30 05:03:30;;;;;;;32.40;11.30;;;;;;;10.40;50.12;98665.32;68290;1283;1016124;-61
2023/03/30 05:06:32;;;;;;;33.00;11.40;;;;;;;10.53;49.87;98669.58;68296;1283;1016633;-61
2023/03/30 05:09:35;;;;;;;30.50;10.80;;;;;;;10.67;49.92;98661.19;68309;1283;1015369;-61
2023/03/30 05:12:37;;;;;;;30.90;11.10;;;;;;;10.74;49.93;98662.48;68299;1283;1015772;-61
2023/03/30 05:15:40;;;;;;;33.30;12.00;;;;;;;10.92;49.56;98660.31;68313;1283;1015241;-61
2023/03/30 05:18:43;;;;;;;31.00;10.90;;;;;;;10.98;49.36;98659.54;68286;1283;1015573;-61
2023/03/30 05:21:46;;;;;;;31.60;11.90;;;;;;;10.98;49.55;98663.23;68300;1283;1015957;-61
2023/03/30 05:24:48;;;;;;;33.30;13.70;;;;;;;11.09;49.50;98661.11;68298;1283;1015789;-61
2023/03/30 05:27:50;;;;;;;36.90;14.10;;;;;;;11.19;49.49;98658.36;68310;1283;1016091;-61
2023/03/30 05:30:53;;;;;;;32.50;13.40;;;;;;;11.28;49.42;98661.27;68300;1283;1015511;-61
2023/03/30 05:33:55;;;;;;;33.50;12.40;;;;;;;11.34;49.19;98657.55;68308;1283;1016093;-61
2023/03/30 05:36:58;;;;;;;34.80;12.80;;;;;;;11.31;49.39;98657.56;68301;1283;1015977;-60
2023/03/30 05:40:00;;;;;;;35.40;12.00;;;;;;;11.33;49.35;98657.48;68303;1283;1015699;-61
2023/03/30 05:43:02;;;;;;;33.50;10.50;;;;;;;11.36;49.21;98655.99;68292;1283;1014415;-61
2023/03/30 05:46:05;;;;;;;32.80;12.00;;;;;;;11.33;49.35;98652.52;68312;1283;1015588;-61
2023/03/30 05:49:07;;;;;;;29.00;11.00;;;;;;;11.38;49.29;98648.33;68295;1283;1015848;-61
2023/03/30 05:52:10;;;;;;;31.00;11.00;;;;;;;11.52;49.27;98647.29;68301;1283;1015742;-61
2023/03/30 05:55:12;;;;;;;;;;;;;;;11.53;48.94;98645.63;68309;1283;1015721;-61
2023/03/30 05:58:15;;;;;;;34.10;11.30;;;;;;;11.50;48.95;98646.69;68304;1283;1015348;-61
2023/03/30 06:01:19;;;;;;;29.00;10.30;;;;;;;11.51;49.03;98640.48;68301;1283;1015494;-61
2023/03/30 06:04:22;;;;;;;29.40;10.60;;;;;;;11.56;49.08;98644.36;68297;1283;1015690;-61
2023/03/30 06:07:24;;;;;;;29.80;10.20;;;;;;;11.72;49.10;98643.60;68306;1283;1014977;-61
2023/03/30 06:10:27;;;;;;;28.30;10.40;;;;;;;11.75;48.96;98639.92;68284;1283;1015839;-61
2023/03/30 06:13:29;;;;;;;26.90;10.00;;;;;;;11.83;48.74;98637.27;68292;1283;1015355;-60
2023/03/30 06:16:32;;;;;;;26.90;8.70;;;;;;;11.85;48.75;98641.51;68294;1283;1016020;-61
2023/03/30 06:19:35;;;;;;;26.80;9.70;;;;;;;11.81;48.94;98640.55;68307;1283;1015674;-62
2023/03/30 06:22:37;;;;;;;28.30;10.00;;;;;;;11.95;49.21;98636.96;68292;1283;1015555;-61
2023/03/30 06:25:40;;;;;;;27.90;9.40;;;;;;;12.06;49.03;98635.57;68298;1283;1016122;-61
2023/03/30 06:28:42;;;;;;;31.30;10.50;;;;;;;12.15;48.75;98637.69;68291;1283;1015402;-61
2023/03/30 06:31:45;;;;;;;29.00;10.80;;;;;;;12.07;48.89;98641.23;68288;1283;1015858;-61
2023/03/30 06:34:47;;;;;;;;;;;;;;;12.13;48.88;98642.75;68305;1283;1015550;-61
2023/03/30 06:37:50;;;;;;;30.20;10.80;;;;;;;12.22;48.58;98643.00;68301;1283;1015900;-61
2023/03/30 06:40:53;;;;;;;29.50;10.70;;;;;;;12.30;48.51;98639.97;68303;1283;1014409;-61
2023/03/30 06:43:56;;;;;;;29.00;10.80;;;;;;;12.35;48.50;98636.52;68298;1283;1014911;-61
2023/03/30 06:46:58;;;;;;;28.60;10.50;;;;;;;12.47;48.45;98625.23;68297;1283;1015073;-61
2023/03/30 06:50:00;;;;;;;27.30;10.60;;;;;;;12.56;48.48;98629.73;68305;1283;1015437;-61
2023/03/30 06:53:03;;;;;;;;;;;;;;;12.64;48.26;98626.68;68306;1283;1015469;-61
2023/03/30 06:56:05;;;;;;;29.90;9.90;;;;;;;12.61;48.24;98627.40;68306;1283;1015337;-61
2023/03/30 06:59:08;;;;;;;27.30;9.90;;;;;;;12.62;48.58;98628.23;68296;1283;1016014;-61
2023/03/30 07:02:10;;;;;;;;;;;;;;;12.83;48.52;98630.21;68309;1283;1016057;-61
2023/03/30 07:05:14;;;;;;;31.10;11.00;;;;;;;13.04;48.58;98631.11;68308;1283;1015489;-61
2023/03/30 07:08:17;;;;;;;30.10;10.30;;;;;;;13.45;48.31;98631.29;68310;1283;1016197;-61
2023/03/30 07:11:19;;;;;;;;;;;;;;;13.68;48.19;98626.36;68309;1283;1015171;-61
2023/03/30 07:14:21;;;;;;;31.40;11.30;;;;;;;13.85;47.69;98623.98;68304;1283;1015602;-61
2023/03/30 07:17:24;;;;;;;27.50;8.90;;;;;;;13.99;47.54;98622.56;68298;1283;1015256;-61
2023/03/30 07:20:26;;;;;;;24.30;8.50;;;;;;;14.14;47.20;98618.71;68295;1283;1015224;-61
2023/03/30 07:23:29;;;;;;;27.10;9.40;;;;;;;14.29;46.98;98620.27;68309;1283;1015977;-61
2023/03/30 07:26:32;;;;;;;23.10;8.10;;;;;;;14.34;46.78;98612.21;68316;1283;1016023;-61
2023/03/30 07:29:35;;;;;;;25.10;8.50;;;;;;;14.39;46.89;98610.12;68297;1283;1016050;-61
2023/03/30 07:32:38;;;;;;;29.90;9.60;;;;;;;14.43;46.31;98608.25;68314;1283;1015419;-61
2023/03/30 07:35:40;;;;;;;29.10;9.50;;;;;;;14.33;46.49;98609.70;68300;1283;1015466;-61
2023/03/30 07:38:43;;;;;;;27.90;9.80;;;;;;;14.45;46.41;98605.79;68300;1283;1016102;-61
2023/03/30 07:41:45;;;;;;;27.70;9.40;;;;;;;14.49;46.41;98607.34;68294;1283;1015875;-61
2023/03/30 07:44:47;;;;;;;26.30;9.00;;;;;;;14.63;45.99;98597.09;68304;1283;1015964;-62
2023/03/30 07:47:50;;;;;;;;;;;;;;;14.72;46.09;98597.99;68315;1283;1015809;-61
2023/03/30 07:50:52;;;;;;;29.00;10.20;;;;;;;14.83;45.97;98591.79;68309;1283;1015466;-61
2023/03/30 07:53:55;;;;;;;32.50;10.00;;;;;;;15.08;45.79;98593.09;68286;1283;1015706;-61
2023/03/30 07:56:58;;;;;;;28.50;10.00;;;;;;;15.30;45.66;98588.96;68307;1283;1015531;-61
2023/03/30 08:00:00;;;;;;;28.60;9.50;;;;;;;15.61;45.13;98585.41;68309;1283;1015747;-61
2023/03/30 08:03:03;;;;;;;30.80;9.10;;;;;;;15.99;44.84;98582.78;68298;1283;1014274;-61
2023/03/30 08:06:05;;;;;;;23.30;8.30;;;;;;;16.15;44.52;98570.95;68301;1283;1015895;-61
2023/03/30 08:09:08;;;;;;;24.20;7.60;;;;;;;16.19;44.07;98564.27;68294;1283;1015366;-61
2023/03/30 08:12:10;;;;;;;26.40;8.40;;;;;;;16.07;44.38;98563.19;68314;1283;1016467;-61
2023/03/30 08:15:13;;;;;;;23.10;7.40;;;;;;;15.94;43.88;98558.13;68309;1283;1016081;-61
2023/03/30 08:18:15;;;;;;;21.90;7.10;;;;;;;15.79;43.94;98558.03;68294;1283;1015585;-61
2023/03/30 08:21:18;;;;;;;21.20;6.50;;;;;;;15.80;43.20;98555.09;68300;1283;1014778;-61
2023/03/30 08:24:20;;;;;;;22.50;6.90;;;;;;;15.84;43.81;98555.73;68303;1283;1014234;-61
2023/03/30 08:27:23;;;;;;;19.10;6.20;;;;;;;15.97;43.68;98550.89;68305;1283;1015996;-61
2023/03/30 08:30:25;;;;;;;20.50;6.30;;;;;;;16.21;43.67;98543.64;68301;1283;1015752;-61
2023/03/30 08:33:28;;;;;;;23.60;6.90;;;;;;;16.40;42.86;98544.58;68308;1283;1016060;-61
2023/03/30 08:36:30;;;;;;;25.10;7.00;;;;;;;16.43;43.17;98536.42;68297;1283;1015406;-61
2023/03/30 08:39:33;;;;;;;23.90;6.50;;;;;;;16.64;43.28;98538.34;68297;1283;1015855;-61
2023/03/30 08:42:35;;;;;;;21.60;5.90;;;;;;;16.83;42.85;98539.18;68299;1261;1015411;-62
2023/03/30 08:45:37;;;;;;;19.60;5.70;;;;;;;16.97;42.72;98551.49;68308;1283;1016100;-61
2023/03/30 08:48:41;;;;;;;19.80;5.70;;;;;;;16.86;42.15;98540.29;68314;1283;1015916;-61
2023/03/30 08:51:45;;;;;;;20.70;5.70;;;;;;;16.75;42.57;98542.34;68297;1283;1015991;-61
2023/03/30 08:54:48;;;;;;;17.60;5.30;;;;;;;16.77;43.38;98538.50;68302;1283;1015444;-61
2023/03/30 08:57:50;;;;;;;18.00;5.30;;;;;;;16.76;42.72;98529.17;68290;1283;1015742;-61
2023/03/30 09:00:52;;;;;;;22.90;6.40;;;;;;;16.69;42.47;98530.56;68304;1283;1015395;-61
2023/03/30 09:03:55;;;;;;;20.30;6.10;;;;;;;16.56;42.59;98534.34;68298;1283;1015192;-61
2023/03/30 09:06:57;;;;;;;;;;;;;;;16.40;42.89;98542.64;68306;1283;1015427;-61
2023/03/30 09:10:00;;;;;;;21.60;7.10;;;;;;;16.07;42.93;98543.80;68293;1283;1016320;-61
2023/03/30 09:13:02;;;;;;;21.50;6.10;;;;;;;15.59;44.15;98548.33;68305;1283;1015327;-61
2023/03/30 09:16:05;;;;;;;20.30;5.90;;;;;;;15.42;44.43;98540.95;68319;1283;1015840;-61
2023/03/30 09:19:07;;;;;;;19.60;6.40;;;;;;;15.33;44.71;98540.43;68307;1283;1015455;-61
2023/03/30 09:22:09;;;;;;;24.00;7.40;;;;;;;15.32;44.68;98535.94;68308;1283;1015674;-61
2023/03/30 09:25:13;;;;;;;20.30;6.90;;;;;;;15.37;44.75;98523.70;68294;1283;1016076;-61
2023/03/30 09:28:16;;;;;;;23.30;6.90;;;;;;;15.55;44.77;98523.23;68297;1283;1015676;-61
2023/03/30 09:31:18;;;;;;;24.50;7.40;;;;;;;15.70;44.39;98510.17;68308;1283;1015173;-61
2023/03/30 09:34:21;;;;;;;21.90;6.40;;;;;;;15.85;44.56;98495.99;68302;1283;1015902;-61
2023/03/30 09:37:23;;;;;;;24.30;7.30;;;;;;;16.25;43.99;98486.34;68295;1283;1015466;-61
2023/03/30 09:40:25;;;;;;;25.30;7.70;;;;;;;16.60;43.59;98487.88;68294;1283;1015866;-61
2023/03/30 09:43:28;;;;;;;;;;;;;;;16.89;42.81;98477.52;68310;1283;1015446;-61
2023/03/30 09:46:31;;;;;;;24.90;7.30;;;;;;;16.96;42.59;98477.91;68306;1283;1016168;-61
2023/03/30 09:49:34;;;;;;;22.40;7.30;;;;;;;17.18;42.51;98475.02;68314;1283;1016075;-61
2023/03/30 09:52:37;;;;;;;23.70;6.90;;;;;;;17.23;42.53;98464.81;68288;1283;1015894;-61
2023/03/30 09:55:40;;;;;;;21.40;6.80;;;;;;;16.96;42.03;98470.03;68299;1283;1015678;-61
2023/03/30 09:58:42;;;;;;;23.70;7.90;;;;;;;16.78;42.44;98471.52;68293;1283;1015978;-62
2023/03/30 10:01:45;;;;;;;24.30;7.00;;;;;;;16.57;42.37;98459.63;68289;1283;1014651;-61
2023/03/30 10:04:47;;;;;;;;;;;;;;;16.35;42.68;98456.34;68307;1283;1015850;-61
2023/03/30 10:07:50;;;;;;;24.00;7.30;;;;;;;16.15;42.80;98465.48;68312;1283;1015874;-61
2023/03/30 10:10:52;;;;;;;21.70;7.20;;;;;;;16.10;43.47;98464.39;68321;1283;1015941;-61
2023/03/30 10:13:54;;;;;;;27.70;7.10;;;;;;;16.07;43.24;98451.56;68300;1283;1016141;-61
2023/03/30 10:16:57;;;;;;;23.60;7.60;;;;;;;16.19;43.10;98441.02;68299;1283;1015646;-61
2023/03/30 10:20:00;;;;;;;23.60;6.80;;;;;;;16.54;43.11;98432.32;68309;1283;1015307;-61
2023/03/30 10:23:03;;;;;;;22.90;6.20;;;;;;;16.90;42.70;98425.55;68289;1283;1015745;-61
2023/03/30 10:26:07;;;;;;;40.60;15.00;;;;;;;17.24;42.40;98417.19;68305;1283;1015757;-61
2023/03/30 10:29:09;;;;;;;25.60;8.70;;;;;;;17.65;42.27;98411.21;68303;1283;1016129;-61
2023/03/30 10:32:12;;;;;;;27.50;8.80;;;;;;;18.22;42.00;98408.59;68312;1283;1016111;-61
2023/03/30 10:35:14;;;;;;;28.70;9.60;;;;;;;18.77;41.66;98402.98;68298;1283;1015955;-61
2023/03/30 10:38:17;;;;;;;26.30;8.30;;;;;;;19.17;40.81;98397.38;68312;1283;1015813;-61
2023/03/30 10:41:19;;;;;;;;;;;;;;;19.31;40.35;98390.25;68298;1283;1015949;-61
2023/03/30 10:44:22;;;;;;;26.30;7.90;;;;;;;19.61;40.74;98380.92;68299;1260;1015829;-61
2023/03/30 10:47:24;;;;;;;26.00;8.40;;;;;;;20.06;40.59;98377.90;68307;1283;1015416;-61
2023/03/30 10:50:27;;;;;;;20.70;6.20;;;;;;;20.32;39.65;98367.55;68307;1283;1015261;-61
2023/03/30 10:53:29;;;;;;;;;;;;;;;20.29;38.87;98367.86;68310;1283;1015360;-62
2023/03/30 10:56:32;;;;;;;19.60;6.10;;;;;;;20.17;39.59;98366.65;68306;1283;1016074;-61
2023/03/30 10:59:34;;;;;;;22.10;6.30;;;;;;;20.07;39.38;98355.61;68299;1283;1016048;-61
2023/03/30 11:02:37;;;;;;;22.60;6.50;;;;;;;19.98;39.01;98357.30;68312;1283;1015815;-60
2023/03/30 11:05:40;;;;;;;20.60;6.20;;;;;;;20.11;39.41;98352.34;68289;1283;1016051;-61
2023/03/30 11:08:42;;;;;;;22.70;6.50;;;;;;;20.11;38.71;98346.85;68306;1283;1015541;-61
2023/03/30 11:11:44;;;;;;;;;;;;;;;20.10;38.79;98347.73;68307;1283;1016091;-62
2023/03/30 11:14:47;;;;;;;25.60;7.10;;;;;;;20.02;38.88;98350.19;68302;1283;1015344;-61
2023/03/30 11:17:49;;;;;;;;;;;;;;;20.05;39.31;98345.66;68301;1283;1015477;-61
2023/03/30 11:20:52;;;;;;;19.90;6.30;;;;;;;20.17;38.98;98339.49;68305;1283;1015734;-62
2023/03/30 11:23:54;;;;;;;;;;;;;;;20.21;38.87;98333.38;68312;1283;1015954;-61
2023/03/30 11:26:56;;;;;;;23.60;6.90;;;;;;;20.40;39.22;98331.50;68297;1283;1015606;-62
2023/03/30 11:29:59;;;;;;;;;;;;;;;20.51;38.42;98324.92;68311;1283;1016088;-62
2023/03/30 11:33:02;;;;;;;20.80;6.30;;;;;;;20.35;38.29;98319.25;68299;1283;1015503;-61
2023/03/30 11:36:05;;;;;;;22.00;5.90;;;;;;;20.15;38.55;98316.94;68304;1283;1015028;-61
2023/03/30 11:39:07;;;;;;;21.50;6.20;;;;;;;20.26;39.12;98313.59;68293;1283;1015709;-62
2023/03/30 11:42:09;;;;;;;;;;;;;;;20.32;38.79;98310.73;68310;1283;1015706;-62
2023/03/30 11:45:12;;;;;;;21.80;6.30;;;;;;;20.35;38.84;98293.48;68308;1283;1015839;-61
2023/03/30 11:48:14;;;;;;;20.80;5.90;;;;;;;20.75;38.35;98286.23;68297;1283;1015291;-62
2023/03/30 11:51:17;;;;;;;;;;;;;;;21.61;38.19;98269.83;68305;1283;1014462;-61
2023/03/30 11:54:19;;;;;;;19.90;6.00;;;;;;;22.06;37.06;98262.10;68311;1260;1015536;-62
2023/03/30 11:57:22;;;;;;;;;;;;;;;22.00;37.33;98262.86;68323;1283;1016210;-62
2023/03/30 12:00:24;;;;;;;19.40;5.40;;;;;;;22.00;36.92;98257.45;68300;1283;1016451;-62
2023/03/30 12:03:27;;;;;;;21.50;6.50;;;;;;;22.12;37.33;98250.85;68297;1283;1015563;-62
2023/03/30 12:06:29;;;;;;;18.20;4.70;;;;;;;22.03;36.75;98256.61;68297;1283;1015712;-61
2023/03/30 12:09:32;;;;;;;21.30;5.80;;;;;;;21.83;36.77;98248.05;68304;1283;1016900;-61
2023/03/30 12:12:35;;;;;;;;;;;;;;;21.56;36.99;98252.45;68302;1283;1015939;-62
2023/03/30 12:15:39;;;;;;;21.40;5.40;;;;;;;21.30;37.52;98250.24;68293;1283;1015878;-61
2023/03/30 12:18:41;;;;;;;19.30;5.30;;;;;;;21.03;37.71;98260.79;68298;1283;1015634;-62
2023/03/30 12:21:43;;;;;;;;;;;;;;;20.58;37.76;98263.41;68300;1283;1015843;-62
2023/03/30 12:24:46;;;;;;;21.10;5.00;;;;;;;20.11;38.61;98267.19;68298;1283;1015400;-62
2023/03/30 12:27:49;;;;;;;19.80;5.30;;;;;;;19.81;38.91;98269.89;68310;1283;1015350;-61
2023/03/30 12:30:52;;;;;;;24.40;6.80;;;;;;;19.52;39.25;98257.92;68307;1283;1015225;-62
2023/03/30 12:33:54;;;;;;;22.10;5.60;;;;;;;19.45;39.46;98242.71;68305;1283;1015817;-62
2023/03/30 12:36:59;;;;;;;;;;;;;;;19.41;39.76;98246.98;68311;1283;1015559;-62
2023/03/30 12:40:05;;;;;;;20.50;5.60;;;;;;;19.67;39.53;98245.99;68310;1283;1016165;-62
2023/03/30 12:43:09;;;;;;;22.00;6.80;;;;;;;19.62;39.73;98245.89;68306;1283;1015759;-62
2023/03/30 12:46:12;;;;;;;17.30;4.80;;;;;;;19.62;39.72;98243.16;68317;1283;1016012;-61
2023/03/30 12:49:15;;;;;;;20.00;4.80;;;;;;;19.44;39.85;98247.08;68298;1283;1016046;-62
2023/03/30 12:52:18;;;;;;;20.90;5.00;;;;;;;19.44;40.16;98239.47;68298;1283;1016306;-61
2023/03/30 12:55:20;;;;;;;21.10;4.90;;;;;;;19.29;40.42;98243.86;68300;1283;1015743;-62
2023/03/30 12:58:25;;;;;;;15.20;3.90;;;;;;;19.14;40.51;98246.29;68317;1283;1016099;-62
2023/03/30 13:01:27;;;;;;;22.60;5.30;;;;;;;18.94;40.88;98242.27;68308;1283;1015809;-62
2023/03/30 13:04:30;;;;;;;22.50;5.40;;;;;;;18.82;41.19;98238.33;68314;1283;1015871;-62
2023/03/30 13:07:35;;;;;;;23.50;5.20;;;;;;;18.68;41.33;98229.45;68292;1283;1015387;-62
2023/03/30 13:10:37;;;;;;;17.30;4.50;;;;;;;18.67;41.56;98226.41;68301;1283;1015902;-61
2023/03/30 13:13:39;;;;;;;;;;;;;;;18.65;42.25;98229.09;68303;1283;1015785;-62
2023/03/30 13:16:42;;;;;;;19.70;4.60;;;;;;;18.71;42.68;98226.52;68296;1283;1015481;-61
2023/03/30 13:19:47;;;;;;;25.00;6.10;;;;;;;18.65;43.10;98232.44;65731;1283;6381798;-62
2023/03/30 13:22:49;;;;;;;21.20;5.70;;;;;;;18.63;43.64;98236.19;68299;1283;1015651;-61
2023/03/30 13:25:53;;;;;;;;;;;;;;;18.56;43.81;98237.81;68313;1283;1016169;-62
2023/03/30 13:28:55;;;;;;;20.10;5.10;;;;;;;18.62;43.18;98231.20;68309;1283;1016069;-62
2023/03/30 13:31:57;;;;;;;20.20;5.80;;;;;;;18.73;43.26;98235.84;68300;1283;1015186;-62
2023/03/30 13:35:00;;;;;;;24.30;6.70;;;;;;;18.54;43.34;98237.80;68308;1283;1015871;-62
2023/03/30 13:38:03;;;;;;;22.70;5.10;;;;;;;18.50;43.90;98235.95;68306;1283;1016264;-62
2023/03/30 13:41:06;;;;;;;20.60;5.00;;;;;;;18.35;43.56;98238.92;68298;1283;1016225;-62
2023/03/30 13:44:09;;;;;;;23.20;5.30;;;;;;;18.22;44.21;98233.72;68293;1283;1016141;-62
2023/03/30 13:47:11;;;;;;;22.50;6.00;;;;;;;18.13;44.22;98232.61;68294;1283;1015406;-62
2023/03/30 13:50:13;;;;;;;;;;;;;;;18.08;44.53;98230.95;68313;1283;1015600;-62
2023/03/30 13:53:16;;;;;;;19.40;4.90;;;;;;;18.18;44.55;98228.89;68300;1283;1015418;-61
2023/03/30 13:56:18;;;;;;;18.70;5.30;;;;;;;18.13;44.46;98224.11;68294;1283;1015342;-61
2023/03/30 13:59:20;;;;;;;24.00;6.20;;;;;;;18.35;44.32;98219.36;68301;1283;1016048;-62